Aviation Digital Data Service (ADDS)

Output produced by METARs form (1554 UTC 23 April 2017)
found at http://www.aviationweather.gov/adds/metars/
 
TAF MPPA 231000Z 2312/2418 07006KT 9999 FEW018 
     BECMG 2314/2318 18006KT 9000 SCT018 SCT100 
     TEMPO 2319/2323 36006KT
       
TAF MPDA 230400Z 2306/2318 00000KT 9999 SCT020 BKN100 
     TEMPO 2314/2318 22008KT
       
TAF MPMG 230400Z 2306/2318 00000KT 9999 FEW020 
     TEMPO 2314/2318 17006KT 9000 SCT020 SCT100
       
TAF MPTO 231000Z 2312/2418 09006KT 9999 FEW018 
     BECMG 2315/2319 19006KT 9000 SCT018 SCT090 
     TEMPO 2320/2323 33008KT